Terminal Aerodrome Forecast
Issued by NWS Wilmington, OH

Home | Current Version | Previous Version | Text Only | Print | Product List | Glossary On
Versions: 1 2 3 4 5 6 7 8 9 10 11 12 13 14 15
000
FTUS41 KILN 270500
TAFCMH
TAF
KCMH 270539Z 2706/2806 16003KT P6SM SCT040 BKN150
     FM271400 19010KT P6SM BKN030
     FM272200 20010KT P6SM VCSH OVC030
      TEMPO 2800/2802 5SM -SHRA OVC015
     FM280200 25009KT P6SM VCSH SCT008 OVC015=

USA.gov is the U.S. government's official web portal to all federal, state and local government web resources and services.